Time;durP1;ratioP1;P1;durP2;ratioP2;P2;SDS_P1;SDS_P2;PMS_P1;PMS_P2;Temp;Humidity;BMP_temperature;BMP_pressure;BME280_temperature;BME280_humidity;BME280_pressure;Samples;Min_cycle;Max_cycle;Signal;HPM_P1;HPM_P2
2021/04/08 00:00:36;;;;;;;6.97;3.93;;;2.30;75.40;;;1.65;67.67;98147.25;4930750;29;20062;-53
2021/04/08 00:03:04;;;;;;;7.00;3.73;;;2.40;75.70;;;1.80;66.97;98136.75;4948221;29;20253;-51
2021/04/08 00:05:31;;;;;;;5.67;3.67;;;2.20;76.20;;;1.83;66.60;98137.41;4932778;29;20081;-51
2021/04/08 00:07:59;;;;;;;6.20;3.20;;;2.20;76.00;;;1.76;66.65;98138.72;4948172;29;20058;-49
2021/04/08 00:10:26;;;;;;;5.23;2.87;;;2.30;75.70;;;1.77;66.60;98137.78;4947896;29;20270;-52
2021/04/08 00:12:54;;;;;;;5.70;2.63;;;2.30;75.50;;;1.76;66.88;98136.09;4946762;29;20199;-50
2021/04/08 00:15:21;;;;;;;5.40;2.50;;;2.30;75.40;;;1.80;67.10;98142.84;4947457;29;20252;-50
2021/04/08 00:17:49;;;;;;;4.87;2.57;;;2.30;75.60;;;1.91;66.11;98134.31;4948103;29;20049;-51
2021/04/08 00:20:21;;;;;;;6.33;3.10;;;2.30;76.10;;;1.95;65.88;98147.13;4947327;29;20055;-52
2021/04/08 00:22:49;;;;;;;6.63;3.67;;;2.30;76.20;;;1.92;66.53;98138.59;4947823;29;20055;-52
2021/04/08 00:25:16;;;;;;;6.03;2.70;;;2.30;75.90;;;1.87;66.79;98141.53;4948078;29;20345;-50
2021/04/08 00:27:45;;;;;;;5.60;2.57;;;2.20;76.80;;;1.87;66.27;98135.44;4949466;29;20047;-49
2021/04/08 00:30:13;;;;;;;5.97;2.80;;;2.20;76.20;;;1.86;66.45;98146.88;4945792;29;20241;-53
2021/04/08 00:32:41;;;;;;;8.23;3.40;;;2.20;76.00;;;1.81;67.01;98139.28;4947319;29;20252;-53
2021/04/08 00:35:09;;;;;;;7.43;3.20;;;2.20;76.10;;;1.87;66.85;98151.19;4948120;29;20046;-48
2021/04/08 00:37:36;;;;;;;6.03;2.47;;;2.20;76.00;;;1.90;66.45;98149.22;4947315;29;20061;-49
2021/04/08 00:40:13;;;;;;;6.07;2.63;;;2.20;76.00;;;1.86;66.07;98146.88;4947258;29;20218;-53
2021/04/08 00:42:42;;;;;;;4.17;2.60;;;2.20;75.50;;;1.95;65.56;98152.38;4947031;29;20051;-51
2021/04/08 00:45:10;;;;;;;6.23;2.90;;;2.20;75.50;;;1.93;66.19;98156.06;4948480;29;20047;-53
2021/04/08 00:47:38;;;;;;;6.13;2.80;;;2.20;75.70;;;1.97;65.63;98147.06;4946793;29;20057;-47
2021/04/08 00:50:07;;;;;;;4.27;2.80;;;2.30;75.70;;;1.95;66.14;98151.56;4946460;29;20051;-50
2021/04/08 00:52:36;;;;;;;5.73;2.93;;;2.30;75.70;;;1.83;66.04;98158.41;4948197;29;20053;-54
2021/04/08 00:55:04;;;;;;;6.80;3.53;;;2.30;75.50;;;1.96;66.32;98153.25;4931087;29;20065;-52
2021/04/08 00:57:32;;;;;;;4.83;2.83;;;2.30;75.80;;;1.99;65.70;98167.97;4931734;29;20067;-53
2021/04/08 01:00:02;;;;;;;5.07;2.97;;;2.30;75.30;;;1.89;65.81;98165.91;4947861;29;20054;-51
2021/04/08 01:02:29;;;;;;;4.20;2.67;;;2.30;75.20;;;1.96;65.27;98159.34;4929996;29;20066;-51
2021/04/08 01:04:58;;;;;;;5.23;3.10;;;2.30;75.00;;;2.04;65.10;98165.91;4930376;29;20043;-49
2021/04/08 01:07:26;;;;;;;6.43;2.90;;;2.30;74.70;;;2.05;64.76;98170.22;4947410;29;20050;-53
2021/04/08 01:09:54;;;;;;;5.97;2.90;;;2.30;74.50;;;2.07;64.70;98179.69;4946994;29;20054;-52
2021/04/08 01:12:21;;;;;;;5.97;3.00;;;2.40;74.20;;;2.08;64.71;98176.13;4928644;29;20054;-50
2021/04/08 01:14:49;;;;;;;5.97;2.83;;;2.40;74.40;;;2.06;64.72;98185.06;4947583;29;20240;-51
2021/04/08 01:17:38;;;;;;;6.30;3.00;;;2.30;74.10;;;2.13;64.26;98181.94;4946948;29;20047;-53
2021/04/08 01:20:14;;;;;;;4.30;3.20;;;2.40;73.60;;;2.20;63.66;98195.53;4932232;29;20051;-48
2021/04/08 01:22:53;;;;;;;5.13;2.33;;;2.40;73.50;;;2.28;63.66;98201.16;4946692;29;20059;-52
2021/04/08 01:25:58;;;;;;;5.00;2.70;;;2.30;73.50;;;2.25;63.22;98203.13;4946947;29;20496;-53
2021/04/08 01:28:40;;;;;;;3.47;2.53;;;2.10;74.00;;;2.34;63.05;98216.53;4947381;29;20059;-51
2021/04/08 01:31:11;;;;;;;5.17;2.60;;;2.10;74.80;;;2.39;62.92;98211.00;4930414;29;20261;-52
2021/04/08 01:33:51;;;;;;;8.80;2.37;;;2.20;74.50;;;2.14;63.14;98217.78;4945966;29;20441;-52
2021/04/08 01:36:30;;;;;;;3.73;2.60;;;2.10;73.20;;;2.25;63.00;98214.50;4930069;29;20063;-50
2021/04/08 01:39:08;;;;;;;5.00;2.70;;;2.10;74.50;;;2.34;63.28;98213.91;4928561;29;20058;-53
2021/04/08 01:41:38;;;;;;;4.63;2.33;;;2.10;74.50;;;2.34;62.44;98207.81;4945440;29;20055;-51
2021/04/08 01:44:13;;;;;;;3.10;2.00;;;2.10;74.00;;;2.46;63.06;98217.56;4929603;29;20047;-52
2021/04/08 01:46:43;;;;;;;5.07;2.10;;;2.20;74.40;;;2.44;62.65;98218.59;4946176;29;20066;-52
2021/04/08 01:49:12;;;;;;;4.93;2.70;;;2.20;73.60;;;2.49;62.34;98217.34;4930204;29;20059;-51
2021/04/08 01:51:40;;;;;;;3.63;2.57;;;2.20;74.50;;;2.56;62.71;98221.28;4929661;29;20253;-48
2021/04/08 01:54:08;;;;;;;4.37;2.30;;;2.30;73.90;;;2.65;62.27;98222.47;4930701;29;20059;-51
2021/04/08 01:56:38;;;;;;;3.60;2.40;;;2.40;73.50;;;2.71;62.11;98210.72;4928739;29;20273;-51
2021/04/08 01:59:07;;;;;;;5.57;2.23;;;2.50;73.50;;;2.79;61.57;98218.97;4931135;29;20039;-50
2021/04/08 02:01:35;;;;;;;4.60;2.80;;;2.50;73.40;;;2.83;61.56;98228.38;4929674;29;20055;-50
2021/04/08 02:04:06;;;;;;;5.33;2.63;;;2.60;72.80;;;2.91;61.85;98226.09;4929182;29;20050;-48
2021/04/08 02:06:36;;;;;;;4.77;2.67;;;2.60;73.10;;;2.97;61.71;98224.84;4930060;28;20120;-53
2021/04/08 02:09:04;;;;;;;6.00;2.83;;;2.70;72.70;;;2.99;61.40;98230.03;4933853;29;20089;-52
2021/04/08 02:11:34;;;;;;;6.07;2.50;;;2.60;72.60;;;2.95;60.89;98232.84;4933163;29;20379;-53
2021/04/08 02:14:01;;;;;;;5.63;2.60;;;2.50;71.90;;;2.93;61.04;98233.88;4934098;29;20051;-52
2021/04/08 02:16:29;;;;;;;5.30;2.70;;;2.50;72.30;;;2.83;60.50;98235.41;4950088;29;20084;-48
2021/04/08 02:18:59;;;;;;;4.47;2.27;;;2.40;72.80;;;2.87;60.64;98236.88;4934130;29;20059;-51
2021/04/08 02:21:28;;;;;;;3.90;2.50;;;2.40;72.40;;;2.89;60.65;98241.13;4934346;29;20039;-49
2021/04/08 02:23:56;;;;;;;4.90;2.20;;;2.50;71.80;;;2.89;60.65;98230.59;4949626;29;20047;-49
2021/04/08 02:26:24;;;;;;;4.93;2.63;;;2.50;71.90;;;2.91;60.63;98233.97;4931829;29;20070;-47
2021/04/08 02:28:53;;;;;;;5.90;3.50;;;2.50;72.00;;;2.91;60.58;98236.59;4917070;29;20055;-52
2021/04/08 02:31:20;;;;;;;6.43;2.97;;;2.50;71.30;;;2.84;60.53;98235.31;4932845;29;20257;-49
2021/04/08 02:33:48;;;;;;;6.27;2.13;;;2.50;71.40;;;2.77;60.17;98239.25;4932939;29;20063;-49
2021/04/08 02:36:16;;;;;;;3.93;2.33;;;2.40;71.30;;;2.74;60.72;98235.06;4948079;29;20069;-47
2021/04/08 02:38:43;;;;;;;6.17;2.80;;;2.40;71.50;;;2.79;60.05;98240.00;4950132;29;20409;-52
2021/04/08 02:41:11;;;;;;;4.40;2.63;;;2.40;71.20;;;2.70;60.27;98246.72;4932817;29;20265;-48
2021/04/08 02:43:39;;;;;;;4.87;2.83;;;2.40;71.10;;;2.57;60.42;98248.41;4932057;29;20062;-50
2021/04/08 02:46:07;;;;;;;6.13;2.67;;;2.30;71.00;;;2.57;60.18;98253.69;4949908;29;20062;-53
2021/04/08 02:48:34;;;;;;;10.90;3.97;;;2.20;71.50;;;2.51;60.44;98257.53;4951063;29;20237;-51
2021/04/08 02:51:09;;;;;;;4.03;2.90;;;2.20;71.60;;;2.45;60.31;98259.72;4948496;29;20107;-53
2021/04/08 02:54:32;;;;;;;7.87;3.67;;;2.20;70.90;;;2.48;60.20;98257.75;4932836;29;20063;-50
2021/04/08 02:57:02;;;;;;;6.10;2.83;;;2.20;70.10;;;2.52;60.12;98263.63;4935650;29;20050;-48
2021/04/08 02:59:54;;;;;;;4.40;2.97;;;2.30;70.30;;;2.48;60.12;98262.13;4931632;29;20050;-48
2021/04/08 03:02:30;;;;;;;4.87;3.33;;;2.20;70.10;;;2.44;59.84;98271.97;4949916;29;20057;-52
2021/04/08 03:04:58;;;;;;;5.87;3.57;;;2.10;70.70;;;2.46;60.30;98267.50;4933353;29;20058;-51
2021/04/08 03:07:36;;;;;;;7.50;3.20;;;2.10;71.00;;;2.44;60.20;98271.97;4933411;29;20340;-49
2021/04/08 03:10:08;;;;;;;5.83;3.47;;;2.10;70.40;;;2.42;59.72;98273.88;4932321;29;20063;-54
2021/04/08 03:12:47;;;;;;;12.10;5.93;;;2.10;70.20;;;2.44;59.37;98271.16;4949438;29;20058;-52
2021/04/08 03:15:34;;;;;;;7.93;4.40;;;2.10;69.50;;;2.45;58.17;98272.84;4932487;29;20055;-49
2021/04/08 03:18:07;;;;;;;11.37;3.70;;;2.20;68.00;;;2.30;58.80;98275.47;4948968;28;20368;-51
2021/04/08 03:20:36;;;;;;;7.10;4.00;;;2.10;67.60;;;2.36;58.82;98280.38;4931772;29;20245;-53
2021/04/08 03:23:11;;;;;;;6.97;4.00;;;2.20;68.00;;;2.40;57.77;98277.53;4947571;29;20067;-52
2021/04/08 03:25:39;;;;;;;4.87;3.73;;;2.20;67.00;;;2.36;56.59;98287.38;4933030;29;20063;-52
2021/04/08 03:28:11;;;;;;;7.13;4.40;;;2.20;66.00;;;2.39;58.21;98278.50;4931649;29;20375;-51
2021/04/08 03:30:40;;;;;;;6.83;4.00;;;2.20;65.80;;;2.44;57.28;98279.88;4931488;29;20070;-49
2021/04/08 03:33:14;;;;;;;8.60;5.33;;;2.20;65.70;;;2.48;57.17;98284.03;4930502;29;20379;-53
2021/04/08 03:35:47;;;;;;;8.10;3.28;;;2.20;66.50;;;2.31;56.91;98276.34;4931582;29;20379;-50
2021/04/08 03:38:17;;;;;;;9.73;4.30;;;2.00;64.70;;;2.33;57.23;98282.34;4931444;29;20253;-54
2021/04/08 03:40:46;;;;;;;5.83;3.70;;;2.00;65.40;;;2.43;57.53;98275.56;4931246;29;20062;-54
2021/04/08 03:43:15;;;;;;;4.77;3.30;;;2.10;66.50;;;2.52;57.46;98285.53;4932006;29;20057;-54
2021/04/08 03:45:42;;;;;;;6.70;4.03;;;2.20;66.50;;;2.58;57.54;98286.06;4948585;29;20055;-51
2021/04/08 03:48:13;;;;;;;7.10;3.57;;;2.20;66.10;;;2.53;56.84;98278.47;4948021;29;20384;-53
2021/04/08 03:50:42;;;;;;;6.37;3.37;;;2.30;65.90;;;2.60;57.06;98284.19;4932774;29;20051;-52
2021/04/08 03:53:10;;;;;;;8.60;3.80;;;2.30;66.60;;;2.62;57.21;98280.53;4930212;29;20261;-51
2021/04/08 03:55:39;;;;;;;7.97;5.53;;;2.30;65.70;;;2.55;56.60;98279.22;4931277;29;20341;-50
2021/04/08 03:58:10;;;;;;;6.47;3.40;;;2.20;65.40;;;2.51;55.56;98281.19;4932902;29;20389;-51
2021/04/08 04:00:39;;;;;;;5.37;4.00;;;2.20;63.70;;;2.53;55.91;98283.72;4931520;29;20054;-51
2021/04/08 04:03:11;;;;;;;4.77;3.00;;;2.10;65.70;;;2.46;56.09;98287.66;4947670;29;20070;-51
2021/04/08 04:05:42;;;;;;;6.13;3.80;;;2.10;64.90;;;2.48;56.48;98285.78;4947324;29;20053;-50
2021/04/08 04:08:11;;;;;;;8.60;3.40;;;2.00;65.80;;;2.55;56.86;98287.09;4948216;29;20055;-53
2021/04/08 04:10:40;;;;;;;6.10;4.00;;;2.10;66.10;;;2.61;56.83;98293.75;4931157;29;20066;-49
2021/04/08 04:13:12;;;;;;;8.53;3.80;;;2.20;66.70;;;2.63;57.26;98294.50;4948273;29;20055;-50
2021/04/08 04:15:44;;;;;;;9.13;3.70;;;2.30;66.60;;;2.56;56.59;98300.16;4931897;29;20237;-54
2021/04/08 04:18:16;;;;;;;8.57;4.43;;;2.30;65.00;;;2.63;56.75;98305.03;4949687;29;20063;-54
2021/04/08 04:20:44;;;;;;;6.50;3.67;;;2.30;65.90;;;2.70;56.90;98303.72;4947475;29;20055;-52
2021/04/08 04:23:13;;;;;;;8.03;3.70;;;2.40;66.20;;;2.74;57.29;98299.94;4946486;29;20230;-49
2021/04/08 04:25:40;;;;;;;9.50;4.30;;;2.40;66.40;;;2.73;57.02;98300.88;4948008;29;20249;-53
2021/04/08 04:28:08;;;;;;;6.33;3.70;;;2.40;66.00;;;2.73;57.04;98300.88;4949122;29;20387;-50
2021/04/08 04:30:35;;;;;;;5.57;3.40;;;2.50;66.00;;;2.75;57.18;98310.38;4953362;23;20026;-53
2021/04/08 04:33:02;;;;;;;10.60;3.43;;;2.50;66.30;;;2.78;56.87;98311.13;4927885;29;20059;-54
2021/04/08 04:35:30;;;;;;;5.50;3.30;;;2.40;65.60;;;2.73;57.05;98320.16;4929835;29;20241;-51
2021/04/08 04:37:57;;;;;;;6.83;3.40;;;2.40;65.70;;;2.73;56.67;98314.03;4927777;29;20059;-51
2021/04/08 04:40:26;;;;;;;6.00;3.50;;;2.40;65.70;;;2.75;56.99;98312.13;4927674;29;20063;-51
2021/04/08 04:42:53;;;;;;;6.87;3.70;;;2.40;66.30;;;2.75;57.01;98320.03;4928446;29;20663;-51
2021/04/08 04:45:20;;;;;;;9.50;4.10;;;2.40;66.50;;;2.74;57.51;98326.25;4928263;29;20059;-50
2021/04/08 04:47:48;;;;;;;7.40;4.13;;;2.40;66.90;;;2.72;57.24;98321.06;4927896;29;20070;-50
2021/04/08 04:50:16;;;;;;;10.67;5.40;;;2.40;67.10;;;2.71;57.62;98321.16;4928949;29;20081;-54
2021/04/08 04:52:43;;;;;;;6.67;4.60;;;2.40;67.00;;;2.70;57.46;98330.00;4927654;29;20065;-53
2021/04/08 04:55:11;;;;;;;8.30;3.57;;;2.40;67.10;;;2.70;57.52;98343.16;4927892;29;20074;-53
2021/04/08 04:57:38;;;;;;;6.23;3.83;;;2.50;67.00;;;2.64;57.51;98340.91;4929280;29;20057;-50
2021/04/08 05:00:07;;;;;;;6.00;3.83;;;2.40;66.40;;;2.65;57.19;98338.16;4928566;29;20074;-51
2021/04/08 05:02:34;;;;;;;5.80;3.40;;;2.40;66.50;;;2.62;57.44;98346.25;4928681;29;20055;-52
2021/04/08 05:05:02;;;;;;;6.83;3.83;;;2.40;66.60;;;2.54;56.89;98348.53;4927154;29;20063;-54
2021/04/08 05:07:30;;;;;;;9.37;4.70;;;2.40;66.80;;;2.56;57.00;98351.91;4929160;29;20058;-52
2021/04/08 05:09:57;;;;;;;8.67;5.17;;;2.40;66.40;;;2.60;57.69;98352.53;4927346;29;20348;-50
2021/04/08 05:12:25;;;;;;;8.63;4.27;;;2.40;66.60;;;2.65;57.14;98347.84;4927594;29;20043;-52
2021/04/08 05:14:52;;;;;;;6.27;3.43;;;2.50;66.80;;;2.68;57.35;98353.75;4927681;29;20056;-50
2021/04/08 05:17:20;;;;;;;8.53;3.57;;;2.50;66.60;;;2.74;57.28;98358.63;4928013;29;20116;-52
2021/04/08 05:19:47;;;;;;;7.30;3.87;;;2.50;66.80;;;2.72;57.46;98360.53;4910224;29;20059;-55
2021/04/08 05:22:15;;;;;;;4.10;2.67;;;2.50;66.80;;;2.56;57.74;98362.41;4927156;29;20048;-55
2021/04/08 05:24:43;;;;;;;4.90;2.97;;;2.50;66.10;;;2.55;57.92;98366.81;4927271;29;20341;-50
2021/04/08 05:27:10;;;;;;;8.20;3.20;;;2.50;66.50;;;2.61;57.75;98370.00;4929878;29;20053;-54
2021/04/08 05:29:41;;;;;;;8.00;3.73;;;2.50;66.40;;;2.53;57.44;98373.94;4926875;29;20059;-52
2021/04/08 05:32:08;;;;;;;7.93;3.77;;;2.50;66.20;;;2.51;57.65;98374.97;4928693;29;20047;-53
2021/04/08 05:34:36;;;;;;;6.57;3.33;;;2.50;66.10;;;2.55;57.61;98372.06;4929091;29;20059;-52
2021/04/08 05:37:03;;;;;;;6.40;3.93;;;2.40;66.20;;;2.62;57.43;98382.19;4927671;29;20066;-53
2021/04/08 05:39:30;;;;;;;6.43;3.90;;;2.50;66.80;;;2.61;57.61;98370.84;4927304;29;20387;-50
2021/04/08 05:41:58;;;;;;;6.60;3.53;;;2.50;66.60;;;2.60;57.84;98381.44;4927376;29;20052;-52
2021/04/08 05:44:25;;;;;;;11.53;6.03;;;2.50;66.40;;;2.64;57.38;98375.09;4909618;29;20056;-51
2021/04/08 05:46:53;;;;;;;12.90;6.23;;;2.50;65.90;;;2.73;57.22;98382.41;4927085;29;20048;-52
2021/04/08 05:49:20;;;;;;;20.53;9.83;;;2.60;66.50;;;2.79;57.24;98382.00;4929196;29;20062;-52
2021/04/08 05:51:48;;;;;;;20.80;8.53;;;2.60;66.30;;;2.84;57.23;98381.75;4911424;29;20067;-55
2021/04/08 05:54:15;;;;;;;26.90;9.97;;;2.60;65.80;;;2.90;56.68;98379.56;4926869;29;20059;-53
2021/04/08 05:56:43;;;;;;;19.93;8.40;;;2.70;65.70;;;2.91;56.35;98388.31;4926911;29;20244;-53
2021/04/08 05:59:10;;;;;;;18.87;7.47;;;2.70;65.50;;;2.89;56.57;98392.81;4928477;29;20059;-53
2021/04/08 06:01:37;;;;;;;33.27;12.40;;;2.80;64.50;;;2.89;56.39;98395.44;4926622;29;20052;-51
2021/04/08 06:04:05;;;;;;;13.87;7.20;;;2.80;64.50;;;2.85;56.24;98396.56;4927607;29;20040;-53
2021/04/08 06:06:32;;;;;;;12.73;6.20;;;2.90;64.20;;;2.94;56.76;98399.47;4928865;29;20055;-52
2021/04/08 06:09:00;;;;;;;8.23;4.20;;;2.80;63.70;;;2.88;55.00;98394.59;4894256;29;20066;-51
2021/04/08 06:11:28;;;;;;;5.83;3.93;;;2.80;63.00;;;2.83;55.23;98391.44;4909940;29;20052;-54
2021/04/08 06:13:55;;;;;;;11.33;6.30;;;2.80;63.00;;;2.86;54.98;98393.00;4927977;29;20056;-49
2021/04/08 06:16:22;;;;;;;7.93;4.70;;;2.70;62.00;;;2.93;55.53;98395.16;4928456;29;20051;-55
2021/04/08 06:18:50;;;;;;;9.53;5.50;;;2.70;63.90;;;2.87;54.95;98398.19;4928987;29;20376;-51
2021/04/08 06:21:17;;;;;;;8.20;5.73;;;2.60;63.10;;;2.88;54.90;98407.75;4927042;29;20051;-49
2021/04/08 06:23:45;;;;;;;7.47;4.53;;;2.70;62.60;;;2.88;55.15;98402.50;4926549;29;20048;-52
2021/04/08 06:26:13;;;;;;;6.40;4.37;;;2.70;62.50;;;2.85;54.72;98404.47;4927358;29;20357;-50
2021/04/08 06:28:41;;;;;;;6.83;3.70;;;2.60;62.80;;;2.94;54.31;98406.53;4927786;29;20762;-50
2021/04/08 06:31:09;;;;;;;7.63;4.20;;;2.80;62.50;;;2.92;54.70;98405.78;4926510;29;20248;-52
2021/04/08 06:33:36;;;;;;;6.53;4.63;;;2.80;62.30;;;2.98;54.80;98410.66;4925045;29;20056;-55
2021/04/08 06:36:08;;;;;;;6.17;4.10;;;2.80;62.50;;;3.07;54.10;98412.72;4927575;29;20265;-53
2021/04/08 06:38:36;;;;;;;9.93;5.17;;;2.80;62.40;;;3.01;54.32;98399.97;4926791;29;20067;-54
2021/04/08 06:41:04;;;;;;;7.67;4.20;;;2.80;60.60;;;2.98;52.60;98401.94;4927514;29;20062;-49
2021/04/08 06:43:37;;;;;;;8.00;3.97;;;2.80;59.70;;;2.90;53.36;98405.03;4926977;29;20052;-51
2021/04/08 06:46:06;;;;;;;;;;;2.80;59.90;;;2.81;52.57;98405.59;4927598;29;20051;-54
2021/04/08 06:48:58;;;;;;;5.90;3.43;;;2.70;59.50;;;2.90;52.76;98408.50;4927112;29;20235;-51
2021/04/08 06:51:32;;;;;;;6.73;4.00;;;2.80;60.30;;;2.98;52.60;98405.41;4910106;29;20062;-50
2021/04/08 06:54:01;;;;;;;5.60;3.85;;;3.00;58.50;;;3.05;53.02;98408.50;4911712;29;20073;-51
2021/04/08 06:56:30;;;;;;;9.07;4.50;;;3.10;60.00;;;3.00;52.17;98408.78;4929559;29;20065;-51
2021/04/08 06:58:58;;;;;;;6.03;3.73;;;3.20;59.20;;;3.05;50.94;98405.88;4931007;29;20051;-52
2021/04/08 07:01:35;;;;;;;6.93;3.93;;;3.30;58.20;;;2.92;50.60;98404.00;4915380;29;20043;-49
2021/04/08 07:04:05;;;;;;;9.30;4.13;;;3.30;56.20;;;3.08;52.03;98410.94;4914036;29;20085;-54
2021/04/08 07:06:32;;;;;;;7.77;3.90;;;3.30;58.80;;;2.94;51.25;98415.25;4931112;29;20054;-50
2021/04/08 07:09:00;;;;;;;7.57;3.80;;;3.20;56.90;;;3.05;49.10;98411.13;4930020;29;20368;-53
2021/04/08 07:11:27;;;;;;;7.07;3.87;;;3.30;56.00;;;3.16;51.19;98419.22;4913580;29;20078;-54
2021/04/08 07:13:55;;;;;;;7.67;4.03;;;3.40;55.80;;;3.35;51.48;98418.88;4929616;29;20054;-54
2021/04/08 07:16:22;;;;;;;5.87;3.80;;;3.50;58.10;;;3.38;51.15;98416.06;4912748;29;20230;-54
2021/04/08 07:18:50;;;;;;;6.03;4.13;;;3.70;57.60;;;3.53;50.98;98424.78;4929779;29;20055;-48
2021/04/08 07:21:17;;;;;;;6.27;4.10;;;3.70;56.40;;;3.53;49.33;98414.25;4930360;29;20050;-52
2021/04/08 07:24:07;;;;;;;7.93;4.40;;;3.90;56.00;;;3.53;47.82;98420.34;4930954;29;20350;-49
2021/04/08 07:26:56;;;;;;;9.17;4.63;;;4.00;53.10;;;3.54;46.90;98429.94;4929850;29;20059;-51
2021/04/08 07:29:46;;;;;;;7.20;3.80;;;4.10;51.90;;;3.64;48.62;98435.44;4930258;29;20311;-51
2021/04/08 07:32:28;;;;;;;4.63;3.50;;;4.10;52.50;;;3.61;46.87;98433.03;4927637;29;20245;-51
2021/04/08 07:35:10;;;;;;;6.93;3.70;;;4.10;52.50;;;3.69;47.64;98440.44;4933745;29;20070;-53
2021/04/08 07:37:38;;;;;;;6.30;3.63;;;4.20;52.60;;;3.71;48.36;98433.28;4941842;29;20047;-51
2021/04/08 07:40:15;;;;;;;6.57;4.37;;;4.20;53.50;;;3.70;47.38;98437.72;4942646;29;20081;-51
2021/04/08 07:42:43;;;;;;;9.70;4.10;;;4.00;53.10;;;3.79;48.49;98441.53;4933049;29;20046;-51
2021/04/08 07:45:30;;;;;;;7.20;3.90;;;4.00;54.30;;;3.86;47.74;98450.75;4941150;29;20063;-52
2021/04/08 07:48:07;;;;;;;6.90;4.53;;;4.00;52.50;;;3.87;47.58;98448.94;4947891;29;20069;-52
2021/04/08 07:50:38;;;;;;;7.90;4.40;;;3.90;53.10;;;3.91;47.19;98448.63;4926304;29;20341;-48
2021/04/08 07:53:05;;;;;;;8.10;4.37;;;4.00;51.10;;;3.94;47.47;98450.25;4948991;29;20049;-51
2021/04/08 07:55:32;;;;;;;6.20;3.80;;;4.10;52.90;;;4.06;48.04;98459.13;4948557;29;20046;-53
2021/04/08 07:58:12;;;;;;;6.60;3.60;;;4.20;52.10;;;3.97;44.79;98447.38;4937806;29;20043;-54
2021/04/08 08:00:53;;;;;;;6.13;3.60;;;4.20;50.50;;;3.90;42.29;98456.66;4937048;29;20069;-47
2021/04/08 08:03:25;;;;;;;8.70;5.30;;;3.90;45.90;;;3.90;45.22;98460.13;4943219;29;20353;-47
2021/04/08 08:05:59;;;;;;;8.80;4.53;;;3.90;49.60;;;3.96;46.67;98463.31;4940491;28;20061;-47
2021/04/08 08:08:44;;;;;;;10.30;4.37;;;3.90;52.40;;;3.83;44.64;98458.00;4943548;29;20256;-48
2021/04/08 08:11:15;;;;;;;6.73;4.67;;;3.80;50.00;;;3.86;46.23;98460.44;4954144;29;20057;-47
2021/04/08 08:13:55;;;;;;;7.87;4.77;;;3.90;51.40;;;3.89;46.67;98462.84;4960169;29;20146;-46
2021/04/08 08:16:27;;;;;;;10.37;5.03;;;3.90;52.80;;;3.85;46.60;98472.75;4948578;29;20165;-47
2021/04/08 08:18:57;;;;;;;8.23;4.60;;;3.90;52.30;;;3.91;47.50;98463.59;4957391;29;20055;-45
2021/04/08 08:21:38;;;;;;;9.27;5.17;;;3.90;53.40;;;3.98;48.40;98466.69;4963453;29;20059;-45
2021/04/08 08:24:12;;;;;;;8.87;5.83;;;4.10;54.90;;;4.08;49.28;98471.25;4958854;29;20047;-45
2021/04/08 08:26:45;;;;;;;10.80;4.57;;;4.20;54.80;;;3.88;48.36;98469.09;4945070;29;20051;-46
2021/04/08 08:29:17;;;;;;;10.60;4.70;;;4.20;53.80;;;3.89;48.57;98476.03;4944793;29;20219;-48
2021/04/08 08:31:59;;;;;;;8.73;4.63;;;4.00;55.20;;;3.86;48.49;98469.19;4945010;29;20356;-47
2021/04/08 08:34:36;;;;;;;7.90;4.57;;;3.80;54.60;;;3.97;49.20;98468.47;4928902;29;20054;-45
2021/04/08 08:37:08;;;;;;;6.03;4.33;;;3.90;55.90;;;4.02;49.66;98469.03;4926710;29;20043;-46
2021/04/08 08:39:40;;;;;;;6.90;4.60;;;4.00;56.30;;;4.11;49.26;98463.16;4944084;29;20067;-46
2021/04/08 08:42:13;;;;;;;6.40;5.00;;;4.10;55.40;;;4.23;49.40;98465.94;4944252;29;20367;-46
2021/04/08 08:44:42;;;;;;;6.40;4.63;;;4.20;55.70;;;4.30;49.13;98460.16;4944708;29;20056;-45
2021/04/08 08:47:16;;;;;;;8.03;5.13;;;4.40;55.70;;;4.31;48.25;98467.09;4930070;29;20044;-46
2021/04/08 08:49:59;;;;;;;7.70;4.38;;;4.40;55.20;;;4.39;48.42;98474.50;4942345;29;20236;-46
2021/04/08 08:52:35;;;;;;;6.82;3.85;;;4.50;55.30;;;4.38;48.86;98478.09;4942939;29;20097;-49
2021/04/08 08:55:15;;;;;;;8.17;3.93;;;4.60;55.20;;;4.26;48.24;98468.34;4940234;29;20354;-46
2021/04/08 08:57:46;;;;;;;7.70;4.20;;;4.60;53.90;;;4.46;49.87;98475.78;4925523;29;20061;-50
2021/04/08 09:00:16;;;;;;;8.83;5.03;;;4.50;55.70;;;4.47;48.73;98472.19;4910089;29;20361;-47
2021/04/08 09:02:46;;;;;;;10.63;5.67;;;4.60;55.70;;;4.48;48.49;98476.53;4940001;29;20052;-51
2021/04/08 09:05:18;;;;;;;13.07;5.13;;;4.60;54.40;;;4.59;49.33;98480.25;4943881;29;20055;-48
2021/04/08 09:07:50;;;;;;;7.00;4.37;;;4.70;55.40;;;4.41;48.71;98471.78;4940690;29;20058;-50
2021/04/08 09:10:41;;;;;;;9.20;5.07;;;4.30;54.80;;;4.57;49.36;98476.88;4943056;29;20066;-49
2021/04/08 09:13:10;;;;;;;6.30;4.97;;;4.40;55.90;;;4.62;48.73;98472.97;4925108;29;20043;-48
2021/04/08 09:15:38;;;;;;;9.57;4.40;;;4.60;53.90;;;4.54;47.00;98477.91;4934464;29;20052;-47
2021/04/08 09:18:09;;;;;;;6.30;4.27;;;4.50;51.80;;;4.42;46.86;98470.81;4933922;29;20670;-50
2021/04/08 09:20:37;;;;;;;6.80;4.27;;;4.60;52.40;;;4.30;46.25;98469.84;4916601;29;20376;-46
2021/04/08 09:23:12;;;;;;;6.20;4.33;;;4.50;51.50;;;4.25;45.38;98470.16;4943279;29;20111;-48
2021/04/08 09:25:56;;;;;;;7.03;4.30;;;4.40;50.40;;;4.38;46.14;98471.97;4940427;29;20058;-40
2021/04/08 09:28:26;;;;;;;9.30;4.53;;;4.40;51.60;;;4.47;44.65;98472.19;4940863;29;20274;-40
2021/04/08 09:33:42;;;;;;;6.80;3.93;;;4.90;48.70;;;4.67;44.32;98476.16;4931597;29;20058;-40
2021/04/08 09:36:21;;;;;;;8.33;5.00;;;4.90;49.00;;;4.59;44.51;98475.81;4940794;29;20063;-40
2021/04/08 09:39:14;;;;;;;8.73;4.67;;;5.00;49.60;;;4.58;44.73;98489.94;4930169;29;20369;-40
2021/04/08 09:42:04;;;;;;;8.50;5.17;;;5.00;49.50;;;4.46;44.91;98477.56;4929958;29;20078;-41
2021/04/08 09:44:32;;;;;;;9.33;5.80;;;4.60;50.40;;;4.60;46.25;98472.22;4918555;29;20051;-41
2021/04/08 09:47:01;;;;;;;9.50;5.53;;;4.70;51.80;;;4.71;46.21;98474.13;4909517;29;20050;-41
2021/04/08 09:49:41;;;;;;;7.27;4.53;;;4.90;51.10;;;4.68;45.53;98480.47;4943755;29;20048;-41
2021/04/08 09:52:10;;;;;;;6.60;4.60;;;4.90;51.00;;;4.84;46.23;98472.34;4935746;29;20044;-41
2021/04/08 09:54:56;;;;;;;8.77;4.33;;;5.00;51.80;;;4.84;44.79;98466.22;4929389;29;20244;-42
2021/04/08 09:57:34;;;;;;;6.70;4.23;;;5.00;49.50;;;4.72;44.57;98465.28;4942283;29;20074;-41
2021/04/08 10:00:14;;;;;;;8.87;5.53;;;4.90;49.30;;;4.69;44.70;98468.97;4932151;29;20358;-42
2021/04/08 10:03:11;;;;;;;7.13;4.67;;;4.80;50.80;;;4.70;45.23;98461.91;4930093;29;20040;-41
2021/04/08 10:05:40;;;;;;;9.13;5.30;;;4.70;51.10;;;4.72;45.77;98462.63;4925469;29;20056;-44
2021/04/08 10:08:09;;;;;;;8.63;5.63;;;4.60;51.70;;;4.85;45.93;98468.78;4943179;29;20062;-42
2021/04/08 10:10:36;;;;;;;8.23;4.83;;;4.70;51.60;;;4.92;46.34;98469.19;4924435;29;20221;-42
2021/04/08 10:13:20;;;;;;;6.87;4.90;;;4.90;51.80;;;5.01;45.63;98452.72;4934822;29;20059;-42
2021/04/08 10:15:49;;;;;;;8.30;4.95;;;5.00;51.60;;;5.11;45.68;98460.84;4943728;29;20055;-42
2021/04/08 10:18:18;;;;;;;10.27;5.10;;;5.20;50.80;;;5.09;44.02;98463.59;4932990;29;20048;-42
2021/04/08 10:20:51;;;;;;;8.40;5.07;;;5.30;50.50;;;5.27;44.58;98466.75;4942873;29;20822;-42
2021/04/08 10:23:39;;;;;;;7.77;5.90;;;5.50;51.00;;;5.33;43.09;98458.41;4943096;29;20058;-42
2021/04/08 10:26:28;;;;;;;8.50;5.53;;;5.60;48.50;;;5.26;42.79;98454.50;4943347;29;20247;-41
2021/04/08 10:28:58;;;;;;;7.57;5.10;;;5.50;47.70;;;5.27;43.98;98448.28;4949045;29;20070;-40
2021/04/08 10:31:37;;;;;;;6.30;4.63;;;5.40;48.70;;;5.29;42.38;98453.41;4965418;29;20349;-41
2021/04/08 10:34:18;;;;;;;8.53;5.13;;;5.50;47.90;;;5.37;43.08;98451.09;4965274;29;20049;-40
2021/04/08 10:36:55;;;;;;;8.93;5.53;;;5.60;47.70;;;5.45;43.40;98446.13;4916670;29;20070;-40
2021/04/08 10:39:32;;;;;;;7.77;4.90;;;5.60;48.20;;;5.44;43.44;98443.56;4946577;29;20256;-41
2021/04/08 10:42:10;;;;;;;10.17;6.13;;;5.60;48.20;;;5.22;42.16;98441.63;4946013;29;20055;-41
2021/04/08 10:44:51;;;;;;;7.40;5.27;;;5.70;47.90;;;5.48;42.09;98439.75;4946934;29;20042;-39
2021/04/08 10:47:24;;;;;;;10.10;5.27;;;5.90;47.50;;;5.66;41.62;98434.94;4946065;29;20051;-40
2021/04/08 10:50:00;;;;;;;11.85;5.68;;;6.10;47.40;;;5.84;43.01;98435.44;4946814;29;20055;-40
2021/04/08 10:52:37;;;;;;;7.77;5.10;;;6.30;48.00;;;5.81;42.16;98438.28;4946770;29;20180;-42
2021/04/08 10:55:11;;;;;;;6.27;4.57;;;6.20;46.00;;;5.73;41.68;98437.03;4945038;29;20260;-40